• Join FlightAware (Why Join?)
  • Login
  • US Flag 
06:32PM EDT


 

Airport Tracker/Info


-or-


 

Live Flight TrackerFlight Track Log ✈ DAL6032 ✈ 22-Jul-2013 ✈ KIND - KDTW

Flight Track Log - Related Links

Times and Time Zones

All times are in EDT time to prevent confusion due to time zone crossing. See the DAL6032 flight status page for this flight to view local times or setup timezone preferences in your user account.

Time Position Orientation Groundspeed Altitude Reporting Facility
EDT Latitude Longitude Course Direction KTS MPH feet Rate Location/Type
08:12AM 39.7000 -86.3167 12° North 169 194 1,400  Level Indianapolis TRACON
08:13AM 39.6667 -86.3667 229° Southwest 189 217 3,500 1,620 Climbing Indianapolis TRACON
08:14AM 39.6794 -86.4261 286° West 235 270 4,800 1,500 Climbing Indianapolis Center
08:15AM 39.7381 -86.3778 32° Northeast 262 302 6,600 1,920 Climbing Indianapolis Center
08:16AM 40.2158 -86.1895 27° Northeast  Level FlightAware Approximate
08:16AM 39.7928 -86.2983 48° Northeast 279 321 8,800  Level Indianapolis Center
08:17AM 40.3135 -86.1485 12° North  Level FlightAware Approximate
08:17AM 39.8672 -86.2558 24° Northeast 297 342 10,500  Level Indianapolis Center
08:18AM 39.9714 -86.2392 North 320 368 11,800 1,260 Climbing Indianapolis Center
08:19AM 40.0672 -86.2367 North 344 396 13,100 1,320 Climbing Indianapolis Center
08:20AM 40.1525 -86.1658 32° Northeast 364 419 14,600 1,380 Climbing Chicago Center
08:21AM 40.2281 -86.0772 42° Northeast 365 420 16,000 1,380 Climbing Chicago Center
08:22AM 40.3058 -85.9875 41° Northeast 372 428 17,500 1,320 Climbing Chicago Center
08:23AM 40.3814 -85.8986 42° Northeast 368 423 18,800 720 Climbing Chicago Center
08:24AM 40.4628 -85.8025 42° Northeast 394 453 19,000 60 Climbing Chicago Center
08:25AM 40.5697 -85.6767 42° Northeast 430 495 19,000  Level Chicago Center
08:26AM 40.6619 -85.5669 42° Northeast 445 512 19,000  Level Chicago Center
08:27AM 40.7467 -85.4681 41° Northeast 442 509 19,000  Level Chicago Center
08:28AM 40.8364 -85.3589 43° Northeast 443 510 19,000  Level Chicago Center
08:29AM 40.9458 -85.2247 43° Northeast 447 514 19,000  Level Chicago Center
08:30AM 41.0397 -85.1203 40° Northeast 445 512 19,000  Level Chicago Center
08:31AM 41.1367 -85.0175 39° Northeast 449 517 19,000  Level Chicago Center
08:32AM 41.2306 -84.9175 39° Northeast 440 506 19,000  Level Chicago Center
08:33AM 41.3253 -84.8144 39° Northeast 442 509 19,000  Level Chicago Center
08:34AM 41.4436 -84.7056 35° Northeast 442 509 19,000  Level Chicago Center
08:35AM 41.5486 -84.6653 16° North 397 457 19,000  Level Chicago Center
08:36AM 41.6489 -84.6197 19° North 384 442 19,000 -120 Level Chicago Center
08:38AM 41.7089 -84.5014 56° Northeast 386 444 18,800 -1,080 Descending Chicago Center
08:39AM 41.7425 -84.3672 71° East 382 440 16,800 -2,340 Descending Chicago Center
08:40AM 41.7739 -84.2461 71° East 351 404 14,000 -2,520 Descending Chicago Center
08:40AM 41.7983 -84.1403 73° East 341 392 12,400 -1,200 Descending Cleveland Center
08:41AM 41.8286 -84.0361 69° East 326 375 12,000 -240 Descending Cleveland Center
08:42AM 41.8969 -83.9197 52° Northeast 352 405 12,000  Level Cleveland Center
08:43AM 41.9517 -83.8247 52° Northeast 354 407 12,000  Level Cleveland Center